Time;durP1;ratioP1;P1;durP2;ratioP2;P2;SDS_P1;SDS_P2;PMS_P1;PMS_P2;Temp;Humidity;BMP_temperature;BMP_pressure;BME280_temperature;BME280_humidity;BME280_pressure;Samples;Min_cycle;Max_cycle;Signal;HPM_P1;HPM_P2
2023/07/17 00:00:12;;;;;;;6.63;3.80;;;17.20;99.90;;;;;;5096095;28;20200;-82
2023/07/17 00:02:39;;;;;;;5.15;3.45;;;17.10;99.90;;;;;;5098931;28;20217;-82
2023/07/17 00:05:07;;;;;;;7.95;3.78;;;17.00;99.90;;;;;;5098604;28;20209;-82
2023/07/17 00:07:34;;;;;;;6.75;4.10;;;17.00;99.90;;;;;;5098714;28;20265;-82
2023/07/17 00:10:01;;;;;;;5.60;3.28;;;17.10;99.90;;;;;;5099112;28;20206;-82
2023/07/17 00:12:28;;;;;;;4.95;3.33;;;17.00;99.90;;;;;;5098912;28;20225;-82
2023/07/17 00:14:54;;;;;;;4.85;3.72;;;16.80;99.90;;;;;;5098938;28;20198;-82
2023/07/17 00:17:21;;;;;;;5.93;3.85;;;16.30;99.90;;;;;;5099635;28;20198;-82
2023/07/17 00:19:54;;;;;;;4.55;3.33;;;16.00;99.90;;;;;;5099249;28;20205;-82
2023/07/17 00:22:23;;;;;;;5.28;3.42;;;16.00;99.90;;;;;;5090649;28;20226;-81
2023/07/17 00:24:50;;;;;;;5.57;3.78;;;16.00;99.90;;;;;;5079956;28;20198;-81
2023/07/17 00:27:17;;;;;;;8.73;3.95;;;16.10;99.90;;;;;;5096086;28;20217;-82
2023/07/17 00:29:44;;;;;;;6.50;4.13;;;16.10;99.90;;;;;;5082799;28;20565;-82
2023/07/17 00:32:11;;;;;;;5.82;3.97;;;16.30;99.90;;;;;;5092133;28;20218;-82
2023/07/17 00:34:38;;;;;;;7.13;4.15;;;16.30;99.90;;;;;;5098758;28;20202;-82
2023/07/17 00:37:05;;;;;;;6.05;4.20;;;16.40;99.90;;;;;;5098501;28;20574;-82
2023/07/17 00:39:34;;;;;;;7.25;4.65;;;16.30;99.90;;;;;;5098618;28;20570;-82
2023/07/17 00:42:01;;;;;;;6.13;3.85;;;16.40;99.90;;;;;;5098592;28;20213;-82
2023/07/17 00:44:28;;;;;;;6.82;4.00;;;16.30;99.90;;;;;;5098327;28;20217;-82
2023/07/17 00:46:56;;;;;;;9.68;4.55;;;16.50;99.90;;;;;;5098040;28;20198;-82
2023/07/17 00:49:24;;;;;;;6.40;4.20;;;16.40;99.90;;;;;;5099138;28;20284;-82
2023/07/17 00:51:53;;;;;;;7.65;4.40;;;16.40;99.90;;;;;;5099106;28;20621;-82
2023/07/17 00:54:20;;;;;;;7.20;4.40;;;16.40;99.90;;;;;;5098596;28;20201;-82
2023/07/17 00:56:48;;;;;;;7.22;4.50;;;16.50;99.90;;;;;;5097958;28;20206;-82
2023/07/17 00:59:15;;;;;;;10.02;5.30;;;16.40;99.90;;;;;;5098986;28;20208;-82
2023/07/17 01:01:43;;;;;;;13.02;6.47;;;16.60;99.90;;;;;;5096196;28;20209;-82
2023/07/17 01:04:10;;;;;;;14.27;7.47;;;16.70;99.90;;;;;;5082563;28;20218;-82
2023/07/17 01:06:38;;;;;;;9.05;4.68;;;16.70;99.90;;;;;;5096676;28;20200;-82
2023/07/17 01:09:06;;;;;;;8.98;4.57;;;16.80;99.90;;;;;;5097090;28;20201;-82
2023/07/17 01:11:33;;;;;;;8.02;5.05;;;16.60;99.90;;;;;;5096130;28;20201;-82
2023/07/17 01:14:01;;;;;;;9.57;5.18;;;16.40;99.90;;;;;;5097482;28;20193;-82
2023/07/17 01:16:28;;;;;;;9.45;5.68;;;16.40;99.90;;;;;;5077503;28;20665;-81
2023/07/17 01:18:54;;;;;;;8.98;4.70;;;16.30;99.90;;;;;;5098408;28;20561;-82
2023/07/17 01:21:27;;;;;;;7.90;4.35;;;16.40;99.90;;;;;;5097410;28;20744;-82
2023/07/17 01:23:56;;;;;;;9.45;4.55;;;16.40;99.90;;;;;;5098197;28;20226;-82
2023/07/17 01:26:23;;;;;;;6.68;4.50;;;16.40;99.90;;;;;;5097148;28;20194;-82
2023/07/17 01:28:50;;;;;;;7.25;4.35;;;16.30;99.90;;;;;;5097484;28;20198;-82
2023/07/17 01:31:17;;;;;;;6.40;4.15;;;16.30;99.90;;;;;;5098593;28;20201;-82
2023/07/17 01:33:44;;;;;;;8.88;4.00;;;16.20;99.90;;;;;;5098269;28;20230;-82
2023/07/17 01:36:12;;;;;;;5.57;3.42;;;16.20;99.90;;;;;;5098140;28;20661;-81
2023/07/17 01:38:39;;;;;;;8.73;4.15;;;16.30;99.90;;;;;;5098257;28;20228;-82
2023/07/17 01:41:07;;;;;;;5.85;3.72;;;16.30;99.90;;;;;;5091487;28;20200;-82
2023/07/17 01:43:34;;;;;;;8.50;3.90;;;16.40;99.90;;;;;;5081548;28;20260;-82
2023/07/17 01:46:02;;;;;;;7.35;4.00;;;16.20;99.90;;;;;;5079828;28;20593;-82
2023/07/17 01:48:29;;;;;;;7.75;3.83;;;16.40;99.90;;;;;;5081697;28;20190;-81
2023/07/17 01:50:55;;;;;;;8.70;3.83;;;16.20;99.90;;;;;;5097987;28;20198;-81
2023/07/17 01:53:22;;;;;;;7.50;4.38;;;16.00;99.90;;;;;;5097652;28;20205;-81
2023/07/17 01:55:49;;;;;;;7.32;4.30;;;16.00;99.90;;;;;;5097194;28;20691;-82
2023/07/17 01:58:17;;;;;;;12.45;6.45;;;15.90;99.90;;;;;;5096858;28;20201;-81
2023/07/17 02:00:44;;;;;;;11.20;6.03;;;15.90;99.90;;;;;;5097573;28;20284;-82
2023/07/17 02:03:10;;;;;;;9.05;4.45;;;15.90;99.90;;;;;;5097019;28;20244;-82
2023/07/17 02:05:37;;;;;;;10.93;6.07;;;15.90;99.90;;;;;;5097101;28;20197;-82
2023/07/17 02:08:06;;;;;;;7.95;5.40;;;16.10;99.90;;;;;;5096921;28;20205;-81
2023/07/17 02:10:33;;;;;;;7.97;4.85;;;16.00;99.90;;;;;;5096532;28;20650;-81
2023/07/17 02:13:00;;;;;;;9.13;5.47;;;15.60;99.90;;;;;;5096618;28;20224;-82
2023/07/17 02:15:28;;;;;;;9.88;5.10;;;15.60;99.90;;;;;;5081647;28;20228;-82
2023/07/17 02:17:55;;;;;;;8.85;5.25;;;15.60;99.90;;;;;;5084996;28;20635;-82
2023/07/17 02:20:23;;;;;;;12.05;6.32;;;15.40;99.90;;;;;;5096265;28;20201;-81
2023/07/17 02:22:50;;;;;;;13.18;6.93;;;15.40;99.90;;;;;;5096472;28;20260;-81
2023/07/17 02:25:17;;;;;;;13.23;7.22;;;15.50;99.90;;;;;;5096023;28;20198;-81
2023/07/17 02:27:43;;;;;;;13.15;7.40;;;15.60;99.90;;;;;;5096611;28;20688;-82
2023/07/17 02:30:11;;;;;;;12.73;6.70;;;15.50;99.90;;;;;;5096107;28;20201;-82
2023/07/17 02:32:39;;;;;;;11.77;6.03;;;15.70;99.90;;;;;;5095695;28;20222;-82
2023/07/17 02:35:06;;;;;;;9.25;6.15;;;15.50;99.90;;;;;;5095721;28;20555;-81
2023/07/17 02:37:33;;;;;;;9.45;5.13;;;15.50;99.90;;;;;;5086108;28;20565;-82
2023/07/17 02:40:00;;;;;;;14.32;7.13;;;15.50;99.90;;;;;;5080339;28;20583;-82
2023/07/17 02:42:27;;;;;;;12.43;6.93;;;15.40;99.90;;;;;;5090441;28;20225;-81
2023/07/17 02:44:54;;;;;;;13.82;7.75;;;15.40;99.90;;;;;;5086787;28;20230;-82
2023/07/17 02:47:20;;;;;;;11.13;6.25;;;15.40;99.90;;;;;;5090342;28;20206;-81
2023/07/17 02:49:48;;;;;;;8.63;5.70;;;15.30;99.90;;;;;;5088942;28;20204;-82
2023/07/17 02:52:15;;;;;;;9.05;5.55;;;15.20;99.90;;;;;;5095862;28;20232;-82
2023/07/17 02:54:42;;;;;;;10.68;6.38;;;15.10;99.90;;;;;;5097050;28;20616;-81
2023/07/17 02:57:10;;;;;;;11.82;6.07;;;15.00;99.90;;;;;;5086113;28;20194;-81
2023/07/17 02:59:37;;;;;;;8.93;5.75;;;15.00;99.90;;;;;;5095823;28;20205;-82
2023/07/17 03:02:05;;;;;;;13.15;6.60;;;15.10;99.90;;;;;;5095857;28;20232;-82
2023/07/17 03:04:32;;;;;;;11.50;6.63;;;15.10;99.90;;;;;;5095389;28;20316;-81
2023/07/17 03:07:00;;;;;;;10.55;5.97;;;15.00;99.90;;;;;;5095019;28;20291;-82
2023/07/17 03:09:27;;;;;;;8.93;5.57;;;15.10;99.90;;;;;;5095393;28;20210;-82
2023/07/17 03:11:54;;;;;;;9.40;5.57;;;15.10;99.90;;;;;;5095682;28;20233;-81
2023/07/17 03:14:21;;;;;;;8.25;5.45;;;15.10;99.90;;;;;;5095869;28;20193;-82
2023/07/17 03:16:47;;;;;;;10.75;6.03;;;15.10;99.90;;;;;;5095086;28;20209;-82
2023/07/17 03:19:14;;;;;;;12.13;6.68;;;15.10;99.90;;;;;;5091952;28;20202;-81
2023/07/17 03:21:41;;;;;;;9.85;6.22;;;15.00;99.90;;;;;;5074501;28;20214;-83
2023/07/17 03:24:09;;;;;;;10.70;5.90;;;15.00;99.90;;;;;;5076083;28;20244;-82
2023/07/17 03:26:36;;;;;;;9.80;5.47;;;15.10;99.90;;;;;;5094001;28;20205;-82
2023/07/17 03:29:04;;;;;;;8.10;4.97;;;15.20;99.90;;;;;;5095614;28;20202;-81
2023/07/17 03:31:30;;;;;;;8.60;5.20;;;15.10;99.90;;;;;;5095101;28;20580;-82
2023/07/17 03:33:57;;;;;;;7.25;4.90;;;14.60;99.90;;;;;;5093069;28;20289;-82
2023/07/17 03:36:24;;;;;;;9.13;5.05;;;14.70;99.90;;;;;;5091852;28;20194;-82
2023/07/17 03:38:51;;;;;;;8.20;5.35;;;15.00;99.90;;;;;;5094087;28;20683;-82
2023/07/17 03:41:21;;;;;;;7.15;4.72;;;15.20;99.90;;;;;;5094142;28;20209;-82
2023/07/17 03:43:48;;;;;;;11.02;4.95;;;15.20;99.90;;;;;;5093930;28;20328;-82
2023/07/17 03:46:15;;;;;;;8.82;4.68;;;15.20;99.90;;;;;;5093515;28;20205;-82
2023/07/17 03:48:41;;;;;;;7.80;4.57;;;15.40;99.90;;;;;;5093971;28;20202;-82
2023/07/17 03:51:08;;;;;;;8.13;4.10;;;15.30;99.90;;;;;;5094387;28;20205;-83
2023/07/17 03:53:35;;;;;;;9.98;4.78;;;15.40;99.90;;;;;;5093547;28;20596;-83
2023/07/17 03:56:02;;;;;;;7.40;4.65;;;15.60;99.90;;;;;;5092954;28;20202;-83
2023/07/17 03:58:30;;;;;;;8.07;4.53;;;15.70;99.90;;;;;;5093513;28;20251;-83
2023/07/17 04:00:57;;;;;;;9.88;4.90;;;15.70;99.90;;;;;;5093805;28;20202;-83
2023/07/17 04:03:24;;;;;;;8.90;4.45;;;15.60;99.90;;;;;;5092736;28;20232;-83
2023/07/17 04:05:51;;;;;;;7.55;3.80;;;15.70;99.90;;;;;;5093001;28;20193;-83
2023/07/17 04:08:17;;;;;;;10.93;4.88;;;16.00;99.90;;;;;;5092941;28;20468;-82
2023/07/17 04:10:44;;;;;;;9.35;4.30;;;16.10;99.90;;;;;;5092684;28;20216;-83
2023/07/17 04:13:13;;;;;;;11.18;5.00;;;16.10;99.90;;;;;;5093363;28;20241;-81
2023/07/17 04:15:42;;;;;;;8.10;4.53;;;16.00;99.90;;;;;;5093057;28;20206;-82
2023/07/17 04:18:08;;;;;;;8.70;4.57;;;16.10;99.90;;;;;;5094461;28;20201;-82
2023/07/17 04:20:38;;;;;;;9.77;4.70;;;15.80;99.90;;;;;;5095060;28;20198;-82
2023/07/17 04:23:05;;;;;;;9.85;4.47;;;15.70;99.90;;;;;;5094443;28;20221;-83
2023/07/17 04:25:32;;;;;;;12.13;4.82;;;15.70;99.90;;;;;;5093516;28;20224;-82
2023/07/17 04:27:58;;;;;;;7.60;4.60;;;15.80;99.90;;;;;;5093203;28;20202;-82
2023/07/17 04:30:25;;;;;;;7.32;4.38;;;16.00;99.90;;;;;;5094492;28;20697;-82
2023/07/17 04:32:54;;;;;;;8.75;4.88;;;16.00;99.90;;;;;;5094060;28;20592;-82
2023/07/17 04:35:21;;;;;;;8.00;4.10;;;16.10;99.90;;;;;;5094488;28;20200;-82
2023/07/17 04:37:48;;;;;;;8.45;4.60;;;16.20;99.90;;;;;;5094108;28;20209;-82
2023/07/17 04:40:15;;;;;;;9.93;4.72;;;16.30;99.90;;;;;;5094583;28;20209;-81
2023/07/17 04:42:42;;;;;;;13.00;5.45;;;16.30;99.90;;;;;;5094263;28;20320;-81
2023/07/17 04:45:11;;;;;;;10.40;4.50;;;16.50;99.90;;;;;;5093550;28;20217;-82
2023/07/17 04:47:38;;;;;;;8.65;4.30;;;16.90;99.90;;;;;;5086820;28;20221;-82
2023/07/17 04:50:08;;;;;;;10.85;4.38;;;17.20;99.90;;;;;;5089297;28;20575;-82
2023/07/17 04:52:34;;;;;;;6.35;4.28;;;17.30;99.90;;;;;;5089214;28;20253;-82
2023/07/17 04:55:01;;;;;;;6.85;4.57;;;17.20;99.90;;;;;;5083700;28;20195;-82
2023/07/17 04:57:28;;;;;;;6.55;3.80;;;17.30;99.90;;;;;;5091123;28;20741;-82
2023/07/17 04:59:55;;;;;;;7.70;4.18;;;17.00;99.90;;;;;;5087323;28;20202;-82
2023/07/17 05:02:22;;;;;;;7.50;4.13;;;16.80;99.90;;;;;;5089632;28;20222;-82
2023/07/17 05:04:48;;;;;;;8.63;4.47;;;16.90;99.90;;;;;;5093042;28;20232;-83
2023/07/17 05:07:17;;;;;;;7.75;4.32;;;17.00;99.90;;;;;;5096597;28;20209;-83
2023/07/17 05:09:44;;;;;;;8.68;4.30;;;17.20;99.90;;;;;;5096761;28;20266;-82
2023/07/17 05:12:11;;;;;;;9.15;5.00;;;17.20;99.90;;;;;;5096077;28;20229;-82
2023/07/17 05:14:37;;;;;;;8.27;4.57;;;17.20;99.90;;;;;;5096660;28;20212;-82
2023/07/17 05:17:04;;;;;;;8.27;3.92;;;17.30;99.90;;;;;;5097131;28;20205;-82
2023/07/17 05:19:31;;;;;;;9.65;4.88;;;17.50;99.90;;;;;;5096406;28;20209;-82
2023/07/17 05:21:58;;;;;;;5.97;4.30;;;17.50;99.90;;;;;;5096129;28;20233;-83
2023/07/17 05:24:26;;;;;;;9.13;4.20;;;17.60;99.90;;;;;;5096231;28;20225;-82
2023/07/17 05:26:55;;;;;;;7.45;4.32;;;17.70;99.90;;;;;;5095297;28;20669;-82
2023/07/17 05:29:22;;;;;;;6.20;4.35;;;17.80;99.90;;;;;;5096512;28;20577;-83
2023/07/17 05:31:49;;;;;;;5.90;4.45;;;18.10;99.90;;;;;;5095749;28;20297;-83
2023/07/17 05:34:16;;;;;;;7.53;4.22;;;18.50;99.90;;;;;;5084316;28;20187;-82
2023/07/17 05:36:43;;;;;;;7.63;4.05;;;18.40;99.90;;;;;;5087034;28;20250;-83
2023/07/17 05:39:10;;;;;;;8.95;3.75;;;18.10;99.90;;;;;;5075619;28;20289;-83
2023/07/17 05:41:38;;;;;;;7.18;3.83;;;17.90;99.90;;;;;;5077235;28;20216;-83
2023/07/17 05:44:04;;;;;;;8.60;4.18;;;17.90;99.90;;;;;;5095317;28;20250;-83
2023/07/17 05:46:31;;;;;;;6.32;3.97;;;17.90;99.90;;;;;;5093710;28;20213;-82
2023/07/17 05:48:58;;;;;;;8.65;4.22;;;18.10;99.90;;;;;;5093856;28;20205;-83
2023/07/17 05:51:25;;;;;;;8.52;3.95;;;18.20;99.90;;;;;;5095028;28;20197;-82
2023/07/17 05:53:51;;;;;;;7.82;4.30;;;18.30;99.90;;;;;;5094717;28;20587;-82
2023/07/17 05:56:18;;;;;;;6.90;3.97;;;18.40;99.90;;;;;;5094489;28;20574;-82
2023/07/17 05:58:46;;;;;;;7.82;4.25;;;18.60;99.90;;;;;;5094402;28;20198;-82
2023/07/17 06:01:13;;;;;;;8.52;4.60;;;18.50;99.90;;;;;;5097444;28;20201;-83
2023/07/17 06:03:40;;;;;;;6.05;4.07;;;18.60;99.90;;;;;;5097079;28;20259;-83
2023/07/17 06:06:07;;;;;;;6.85;3.60;;;18.60;99.90;;;;;;5095502;28;20228;-82
2023/07/17 06:08:33;;;;;;;7.97;4.20;;;18.60;99.90;;;;;;5097029;28;20204;-82
2023/07/17 06:11:00;;;;;;;7.72;4.18;;;18.60;99.90;;;;;;5096386;28;20209;-82
2023/07/17 06:13:27;;;;;;;6.50;4.03;;;18.50;99.90;;;;;;5096486;28;20240;-82
2023/07/17 06:15:56;;;;;;;9.27;3.95;;;18.70;99.90;;;;;;5095732;28;20193;-82
2023/07/17 06:18:22;;;;;;;5.95;3.70;;;18.60;99.90;;;;;;5096339;28;20409;-82
2023/07/17 06:20:49;;;;;;;7.50;3.75;;;18.60;99.90;;;;;;5095283;28;20208;-83
2023/07/17 06:23:16;;;;;;;7.50;4.00;;;18.80;99.90;;;;;;5087624;28;20232;-82
2023/07/17 06:25:44;;;;;;;6.68;3.95;;;18.80;99.90;;;;;;5095293;28;20221;-83
2023/07/17 06:28:12;;;;;;;7.50;4.25;;;19.00;99.90;;;;;;5092812;28;20209;-83
2023/07/17 06:30:39;;;;;;;8.95;4.30;;;18.90;99.90;;;;;;5074410;28;20724;-82
2023/07/17 06:33:07;;;;;;;7.25;4.25;;;18.90;99.90;;;;;;5093496;28;20235;-83
2023/07/17 06:35:34;;;;;;;6.80;4.05;;;18.90;99.90;;;;;;5094483;28;20197;-83
2023/07/17 06:38:00;;;;;;;6.03;3.40;;;18.90;99.90;;;;;;5094008;28;20284;-82
2023/07/17 06:40:27;;;;;;;10.77;4.30;;;18.90;99.90;;;;;;5094538;28;20454;-83
2023/07/17 06:42:55;;;;;;;8.68;4.15;;;19.20;99.90;;;;;;5095674;28;20218;-82
2023/07/17 06:45:21;;;;;;;9.30;4.15;;;19.30;99.90;;;;;;5095089;28;20249;-82
2023/07/17 06:47:48;;;;;;;7.28;3.55;;;19.00;99.90;;;;;;5094492;28;20205;-82
2023/07/17 06:50:16;;;;;;;6.50;3.65;;;19.10;99.90;;;;;;5077953;28;20248;-83
2023/07/17 06:52:43;;;;;;;8.05;3.60;;;19.10;99.90;;;;;;5089969;28;20225;-82
2023/07/17 06:55:10;;;;;;;5.22;3.10;;;19.20;99.90;;;;;;5084603;28;20669;-83
2023/07/17 06:57:37;;;;;;;4.97;2.85;;;19.40;99.90;;;;;;5082039;28;20208;-82
2023/07/17 07:00:05;;;;;;;5.15;3.65;;;19.40;99.90;;;;;;5091947;28;20304;-82
2023/07/17 07:02:32;;;;;;;7.18;3.33;;;19.40;99.90;;;;;;5085577;28;20218;-83
2023/07/17 07:04:59;;;;;;;7.25;3.92;;;19.60;99.90;;;;;;5090197;28;20311;-82
2023/07/17 07:07:27;;;;;;;6.65;3.13;;;19.40;99.90;;;;;;5085932;28;20193;-83
2023/07/17 07:09:54;;;;;;;3.75;3.00;;;19.60;99.90;;;;;;5093938;28;20224;-83
2023/07/17 07:12:20;;;;;;;5.72;3.42;;;19.80;99.90;;;;;;5093806;28;20568;-83
2023/07/17 07:14:47;;;;;;;7.60;3.13;;;19.70;99.90;;;;;;5093948;28;20212;-83
2023/07/17 07:17:14;;;;;;;9.35;3.10;;;19.80;99.90;;;;;;5093330;28;20206;-83
2023/07/17 07:19:41;;;;;;;6.40;3.10;;;19.80;99.90;;;;;;5093824;28;20212;-83
2023/07/17 07:22:08;;;;;;;5.45;2.85;;;20.00;99.90;;;;;;5093640;28;20225;-83
2023/07/17 07:24:36;;;;;;;6.00;2.92;;;20.00;99.90;;;;;;5093586;28;20205;-82
2023/07/17 07:27:03;;;;;;;5.60;2.80;;;19.80;99.90;;;;;;5092342;28;20572;-83
2023/07/17 07:29:30;;;;;;;6.45;3.00;;;19.60;99.90;;;;;;5084973;28;20204;-83
2023/07/17 07:31:56;;;;;;;7.22;2.75;;;19.50;99.90;;;;;;5074548;28;20218;-82
2023/07/17 07:34:23;;;;;;;5.53;2.67;;;19.40;99.90;;;;;;5082245;28;20198;-82
2023/07/17 07:36:50;;;;;;;4.20;2.53;;;19.40;99.90;;;;;;5079063;28;20606;-83
2023/07/17 07:39:17;;;;;;;4.38;2.70;;;19.50;99.90;;;;;;5081858;28;20572;-83
2023/07/17 07:41:45;;;;;;;4.10;2.60;;;19.50;99.90;;;;;;5078303;28;20210;-83
2023/07/17 07:44:12;;;;;;;4.10;2.78;;;19.60;99.90;;;;;;5093172;28;20212;-83
2023/07/17 07:46:39;;;;;;;5.07;2.40;;;19.90;99.90;;;;;;5092391;28;20316;-83
2023/07/17 07:49:08;;;;;;;2.88;2.58;;;20.10;99.90;;;;;;5075324;28;20214;-83
2023/07/17 07:51:35;;;;;;;5.93;2.80;;;20.20;99.90;;;;;;5084374;28;20210;-84
2023/07/17 07:54:02;;;;;;;3.72;2.55;;;20.10;99.90;;;;;;5093376;28;20201;-84
2023/07/17 07:56:29;;;;;;;3.45;2.28;;;20.10;99.90;;;;;;5092470;28;20211;-84
2023/07/17 07:58:57;;;;;;;5.97;2.05;;;20.10;99.90;;;;;;5093009;28;20197;-83
2023/07/17 08:01:24;;;;;;;2.85;1.80;;;20.10;99.90;;;;;;5093479;28;20201;-84
2023/07/17 08:03:51;;;;;;;3.67;1.88;;;20.40;99.90;;;;;;5092903;28;20233;-83
2023/07/17 08:06:17;;;;;;;3.42;2.10;;;20.60;99.90;;;;;;5092965;28;20221;-83
2023/07/17 08:08:44;;;;;;;2.00;1.70;;;20.50;99.90;;;;;;5092267;28;20211;-84
2023/07/17 08:11:11;;;;;;;3.25;1.80;;;20.50;99.90;;;;;;5092733;28;20212;-83
2023/07/17 08:13:38;;;;;;;6.65;1.80;;;20.60;99.90;;;;;;5092468;28;20230;-83
2023/07/17 08:16:06;;;;;;;2.38;1.50;;;20.70;99.90;;;;;;5092539;28;20208;-83
2023/07/17 08:18:33;;;;;;;4.70;2.00;;;20.80;99.90;;;;;;5092794;28;20201;-83
2023/07/17 08:21:00;;;;;;;4.57;2.08;;;20.80;99.90;;;;;;5092552;28;20236;-83
2023/07/17 08:23:27;;;;;;;2.00;1.58;;;20.80;99.90;;;;;;5098386;28;20685;-86
2023/07/17 08:25:54;;;;;;;3.13;1.83;;;20.90;99.90;;;;;;5099475;28;20220;-84
2023/07/17 08:28:21;;;;;;;3.05;1.80;;;21.00;99.90;;;;;;5098343;28;20209;-84
2023/07/17 08:30:51;;;;;;;2.65;1.90;;;21.00;99.90;;;;;;5098181;28;20217;-83
2023/07/17 08:33:19;;;;;;;3.00;1.67;;;21.20;99.90;;;;;;5088438;28;20309;-81
2023/07/17 08:35:46;;;;;;;3.50;1.85;;;21.10;99.90;;;;;;5083597;28;20628;-83
2023/07/17 08:38:13;;;;;;;1.73;1.63;;;21.20;99.90;;;;;;5088620;28;20216;-83
2023/07/17 08:40:41;;;;;;;2.60;1.85;;;21.30;99.90;;;;;;5081155;28;20213;-83
2023/07/17 08:43:08;;;;;;;5.18;2.33;;;21.20;99.90;;;;;;5097891;28;20247;-84
2023/07/17 08:45:35;;;;;;;3.22;1.83;;;21.40;99.90;;;;;;5098977;28;20225;-82
2023/07/17 08:48:03;;;;;;;3.28;2.10;;;21.50;99.90;;;;;;5099524;28;20224;-82
2023/07/17 08:50:33;;;;;;;4.32;2.00;;;21.60;93.50;;;;;;5098046;28;20201;-82
2023/07/17 08:53:00;;;;;;;3.65;2.03;;;21.60;99.90;;;;;;5098649;28;20624;-83
2023/07/17 08:55:29;;;;;;;2.67;1.75;;;21.90;98.70;;;;;;5098745;28;20212;-83
2023/07/17 08:57:57;;;;;;;4.78;1.95;;;22.10;65.10;;;;;;5099940;28;20220;-82
2023/07/17 09:00:24;;;;;;;3.03;2.10;;;22.20;63.20;;;;;;5100759;28;20210;-83
2023/07/17 09:02:51;;;;;;;4.82;2.22;;;22.30;84.20;;;;;;5100783;28;20681;-82
2023/07/17 09:05:18;;;;;;;2.03;1.77;;;22.40;69.50;;;;;;5097209;28;20214;-83
2023/07/17 09:07:47;;;;;;;4.55;1.77;;;22.80;57.40;;;;;;5096698;28;20362;-82
2023/07/17 09:10:16;;;;;;;3.72;2.05;;;22.80;65.30;;;;;;5097818;28;20202;-81
2023/07/17 09:12:43;;;;;;;4.78;2.28;;;22.80;39.80;;;;;;5096798;28;20712;-82
2023/07/17 09:15:15;;;;;;;3.45;2.10;;;23.30;26.90;;;;;;5096704;28;20209;-82
2023/07/17 09:17:42;;;;;;;5.13;2.28;;;23.60;33.30;;;;;;5096844;28;20224;-82
2023/07/17 09:20:11;;;;;;;5.18;2.20;;;23.60;24.40;;;;;;5098061;28;20205;-82
2023/07/17 09:22:38;;;;;;;4.30;2.20;;;23.50;1.00;;;;;;5096180;28;20228;-82
2023/07/17 09:25:09;;;;;;;2.47;2.22;;;23.50;1.00;;;;;;5095746;28;20220;-82
2023/07/17 09:27:44;;;;;;;5.78;2.22;;;24.00;1.00;;;;;;5095724;28;20201;-84
2023/07/17 09:30:13;;;;;;;3.38;2.03;;;24.00;1.00;;;;;;5095096;28;20205;-84
2023/07/17 09:32:40;;;;;;;3.13;2.10;;;24.30;1.00;;;;;;5095257;28;20240;-83
2023/07/17 09:35:11;;;;;;;4.03;2.30;;;24.20;1.00;;;;;;5095542;28;20208;-83
2023/07/17 09:37:40;;;;;;;3.63;2.22;;;24.40;1.00;;;;;;5094541;28;20202;-83
2023/07/17 09:40:11;;;;;;;5.47;2.53;;;24.60;1.00;;;;;;5095389;28;20212;-83
2023/07/17 09:42:40;;;;;;;4.00;2.33;;;24.80;1.00;;;;;;5095353;28;20234;-83
2023/07/17 09:45:08;;;;;;;4.05;2.42;;;24.70;1.00;;;;;;5095526;28;20208;-83
2023/07/17 09:47:36;;;;;;;6.45;2.60;;;25.10;1.00;;;;;;5095536;28;20245;-83
2023/07/17 09:50:03;;;;;;;3.78;2.53;;;25.10;1.00;;;;;;5095345;28;20201;-83
2023/07/17 09:52:31;;;;;;;5.38;2.30;;;25.00;1.00;;;;;;5095570;28;20225;-84
2023/07/17 09:55:00;;;;;;;5.63;2.10;;;25.00;1.00;;;;;;5095507;28;20221;-83
2023/07/17 09:57:30;;;;;;;5.85;2.40;;;25.30;1.00;;;;;;5097613;28;20326;-83
2023/07/17 09:59:59;;;;;;;3.80;2.15;;;25.40;1.00;;;;;;5097019;28;20198;-84
2023/07/17 10:02:31;;;;;;;3.45;2.67;;;25.10;1.00;;;;;;5097015;28;20225;-83
2023/07/17 10:05:00;;;;;;;3.78;2.40;;;25.10;1.00;;;;;;5097096;28;20733;-84
2023/07/17 10:07:29;;;;;;;2.95;2.65;;;25.40;1.00;;;;;;5096826;28;20221;-84
2023/07/17 10:09:59;;;;;;;5.25;2.58;;;25.20;1.00;;;;;;5097124;28;20665;-84
2023/07/17 10:12:26;;;;;;;5.00;2.65;;;25.20;1.00;;;;;;5096572;28;20255;-83
2023/07/17 10:14:55;;;;;;;3.30;2.03;;;24.60;1.00;;;;;;5095891;28;20209;-83
2023/07/17 10:17:29;;;;;;;2.88;2.28;;;25.00;1.00;;;;;;5097005;28;20650;-82
2023/07/17 10:19:58;;;;;;;3.67;2.22;;;24.80;1.00;;;;;;5096443;28;20206;-83
2023/07/17 10:22:31;;;;;;;4.07;2.30;;;25.00;1.00;;;;;;5095849;28;20259;-83
2023/07/17 10:24:58;;;;;;;4.07;2.28;;;24.40;1.00;;;;;;5095889;28;20293;-83
2023/07/17 10:27:41;;;;;;;3.92;2.05;;;24.80;1.00;;;;;;5095785;28;20597;-83
2023/07/17 10:30:24;;;;;;;5.07;2.63;;;25.10;1.00;;;;;;5096250;28;20211;-82
2023/07/17 10:33:04;;;;;;;5.30;2.67;;;25.30;1.00;;;;;;5095849;28;20334;-82
2023/07/17 10:35:43;;;;;;;4.07;2.40;;;24.50;1.00;;;;;;5094513;28;20201;-83
2023/07/17 10:38:11;;;;;;;4.90;2.55;;;25.50;1.00;;;;;;5092296;28;20197;-83
2023/07/17 10:40:38;;;;;;;3.22;2.25;;;25.70;1.00;;;;;;5074792;28;20206;-83
2023/07/17 10:43:12;;;;;;;2.30;2.10;;;26.20;1.00;;;;;;5092797;28;20218;-83
2023/07/17 10:45:40;;;;;;;3.67;2.33;;;25.90;1.00;;;;;;5085570;28;20598;-83
2023/07/17 10:48:07;;;;;;;3.28;2.40;;;26.20;1.00;;;;;;5079176;28;20569;-83
2023/07/17 10:50:34;;;;;;;4.45;2.28;;;26.60;1.00;;;;;;5093654;28;20226;-83
2023/07/17 10:53:04;;;;;;;5.00;2.35;;;26.10;1.00;;;;;;5094869;28;20226;-83
2023/07/17 10:55:32;;;;;;;4.45;2.53;;;25.70;1.00;;;;;;5095008;28;20201;-83
2023/07/17 10:58:00;;;;;;;3.10;2.38;;;25.70;1.00;;;;;;5088689;28;20202;-83
2023/07/17 11:00:27;;;;;;;3.85;2.50;;;25.80;1.00;;;;;;5084247;28;20204;-83
2023/07/17 11:02:57;;;;;;;5.00;2.67;;;25.50;1.00;;;;;;5081133;28;20257;-83
2023/07/17 11:05:24;;;;;;;6.07;2.80;;;25.10;1.00;;;;;;5078281;28;20198;-83
2023/07/17 11:07:51;;;;;;;3.33;2.42;;;24.70;1.00;;;;;;5086282;28;20226;-83
2023/07/17 11:10:18;;;;;;;5.00;3.00;;;24.00;1.00;;;;;;5076619;28;20301;-83
2023/07/17 11:12:45;;;;;;;5.13;2.67;;;24.20;1.00;;;;;;5087957;28;20224;-83
2023/07/17 11:15:16;;;;;;;3.90;3.03;;;25.30;1.00;;;;;;5073292;28;20202;-83
2023/07/17 11:17:43;;;;;;;4.80;2.90;;;26.20;1.00;;;;;;5084636;28;20586;-83
2023/07/17 11:20:13;;;;;;;5.22;2.70;;;26.10;1.00;;;;;;5085954;28;20194;-83
2023/07/17 11:22:41;;;;;;;4.60;2.83;;;25.50;1.00;;;;;;5093991;28;20229;-83
2023/07/17 11:25:10;;;;;;;4.03;2.90;;;24.70;1.00;;;;;;5079303;28;20229;-83
2023/07/17 11:27:38;;;;;;;4.95;3.00;;;24.40;1.00;;;;;;5073009;28;20325;-83
2023/07/17 11:30:16;;;;;;;3.60;2.80;;;24.10;1.00;;;;;;5074222;28;20206;-83
2023/07/17 11:32:43;;;;;;;5.82;3.20;;;24.50;1.00;;;;;;5092199;28;20300;-83
2023/07/17 11:35:12;;;;;;;4.53;3.10;;;24.80;1.00;;;;;;5081962;28;20575;-83
2023/07/17 11:37:40;;;;;;;7.25;2.97;;;26.00;1.00;;;;;;5076316;28;20198;-84
2023/07/17 11:40:09;;;;;;;5.65;3.40;;;26.70;1.00;;;;;;5078819;28;20244;-83
2023/07/17 11:42:55;;;;;;;6.10;3.00;;;26.10;1.00;;;;;;5081516;28;20230;-83
2023/07/17 11:45:24;;;;;;;3.88;2.78;;;24.90;1.00;;;;;;5074725;28;20279;-84
2023/07/17 11:47:52;;;;;;;5.93;3.13;;;24.80;1.00;;;;;;5092271;28;20221;-84
2023/07/17 11:50:21;;;;;;;5.00;2.85;;;25.30;1.00;;;;;;5093038;28;20201;-84
2023/07/17 11:52:48;;;;;;;6.18;2.95;;;25.70;1.00;;;;;;5093270;28;20222;-83
2023/07/17 11:55:21;;;;;;;5.93;3.28;;;26.00;1.00;;;;;;5092365;28;20280;-81
2023/07/17 11:57:51;;;;;;;3.67;3.05;;;26.20;1.00;;;;;;5094069;28;20224;-83
2023/07/17 12:00:19;;;;;;;4.47;2.90;;;25.70;99.90;;;;;;5097207;28;20243;-84
2023/07/17 12:02:47;;;;;;;3.20;2.83;;;25.70;99.90;;;;;;5096601;28;20646;-84
2023/07/17 12:05:14;;;;;;;5.82;3.33;;;25.70;1.00;;;;;;5081421;28;20194;-84
2023/07/17 12:07:42;;;;;;;4.30;2.83;;;26.30;1.00;;;;;;5076176;28;20226;-84
2023/07/17 12:10:10;;;;;;;6.90;3.33;;;26.80;99.90;;;;;;5085565;28;20205;-83
2023/07/17 12:12:37;;;;;;;6.60;3.25;;;26.70;99.90;;;;;;5097617;28;20229;-84
2023/07/17 12:15:04;;;;;;;4.03;2.83;;;26.50;99.90;;;;;;5098077;28;20208;-85
2023/07/17 12:17:31;;;;;;;7.25;3.05;;;25.70;99.90;;;;;;5086853;28;20197;-84
2023/07/17 12:19:58;;;;;;;4.47;3.03;;;25.40;99.90;;;;;;5076793;28;20661;-84
2023/07/17 12:22:25;;;;;;;4.65;3.22;;;25.00;99.90;;;;;;5078036;28;20237;-84
2023/07/17 12:24:53;;;;;;;5.68;3.38;;;25.10;99.90;;;;;;5077036;28;20237;-84
2023/07/17 12:27:19;;;;;;;7.15;3.45;;;25.70;99.90;;;;;;5089437;28;20221;-84
2023/07/17 12:29:46;;;;;;;7.30;3.05;;;26.00;99.90;;;;;;5077433;28;20206;-83
2023/07/17 12:32:13;;;;;;;4.05;2.88;;;26.40;99.90;;;;;;5078748;28;20225;-86
2023/07/17 12:34:40;;;;;;;3.42;2.72;;;25.90;99.90;;;;;;5077897;28;20233;-83
2023/07/17 12:37:06;;;;;;;3.90;2.83;;;26.00;99.90;;;;;;5095331;28;20598;-84
2023/07/17 12:39:33;;;;;;;6.60;3.70;;;26.00;99.90;;;;;;5096756;28;20649;-84
2023/07/17 12:42:01;;;;;;;6.18;3.40;;;26.30;99.90;;;;;;5097083;28;20573;-84
2023/07/17 12:44:29;;;;;;;4.68;3.35;;;26.40;99.90;;;;;;5096586;28;20204;-85
2023/07/17 12:46:56;;;;;;;5.47;3.70;;;26.70;99.90;;;;;;5085413;28;20229;-84
2023/07/17 12:49:22;;;;;;;5.32;3.30;;;26.50;99.90;;;;;;5096617;28;20212;-84